sensor_id;sensor_type;location;lat;lon;timestamp;P1;durP1;ratioP1;P2;durP2;ratioP2
29812;SDS011;16707;48.106;11.548;2023-03-30T00:01:21;4.93;;;1.80;;
29812;SDS011;16707;48.106;11.548;2023-03-30T00:03:48;2.92;;;1.50;;
29812;SDS011;16707;48.106;11.548;2023-03-30T00:06:19;3.83;;;1.70;;
29812;SDS011;16707;48.106;11.548;2023-03-30T00:08:55;3.28;;;1.45;;
29812;SDS011;16707;48.106;11.548;2023-03-30T00:11:25;7.30;;;1.65;;
29812;SDS011;16707;48.106;11.548;2023-03-30T00:13:58;3.50;;;1.67;;
29812;SDS011;16707;48.106;11.548;2023-03-30T00:16:27;5.63;;;1.83;;
29812;SDS011;16707;48.106;11.548;2023-03-30T00:18:55;4.10;;;1.98;;
29812;SDS011;16707;48.106;11.548;2023-03-30T00:21:25;4.47;;;1.48;;
29812;SDS011;16707;48.106;11.548;2023-03-30T00:23:53;3.58;;;1.60;;
29812;SDS011;16707;48.106;11.548;2023-03-30T00:26:20;3.80;;;1.67;;
29812;SDS011;16707;48.106;11.548;2023-03-30T00:28:58;4.50;;;1.60;;
29812;SDS011;16707;48.106;11.548;2023-03-30T00:31:27;4.88;;;1.48;;
29812;SDS011;16707;48.106;11.548;2023-03-30T00:33:58;8.00;;;1.80;;
29812;SDS011;16707;48.106;11.548;2023-03-30T00:36:35;3.78;;;1.95;;
29812;SDS011;16707;48.106;11.548;2023-03-30T00:39:04;3.67;;;1.70;;
29812;SDS011;16707;48.106;11.548;2023-03-30T00:41:32;5.55;;;1.70;;
29812;SDS011;16707;48.106;11.548;2023-03-30T00:44:00;8.02;;;1.75;;
29812;SDS011;16707;48.106;11.548;2023-03-30T00:46:31;3.95;;;1.92;;
29812;SDS011;16707;48.106;11.548;2023-03-30T00:49:02;4.78;;;1.60;;
29812;SDS011;16707;48.106;11.548;2023-03-30T00:51:35;4.32;;;2.15;;
29812;SDS011;16707;48.106;11.548;2023-03-30T00:54:15;4.20;;;1.55;;
29812;SDS011;16707;48.106;11.548;2023-03-30T00:56:48;5.30;;;1.75;;
29812;SDS011;16707;48.106;11.548;2023-03-30T00:59:26;5.15;;;1.92;;
29812;SDS011;16707;48.106;11.548;2023-03-30T01:01:58;6.32;;;2.58;;
29812;SDS011;16707;48.106;11.548;2023-03-30T01:04:29;4.18;;;1.85;;
29812;SDS011;16707;48.106;11.548;2023-03-30T01:09:34;7.40;;;1.80;;
29812;SDS011;16707;48.106;11.548;2023-03-30T01:12:07;5.20;;;2.10;;
29812;SDS011;16707;48.106;11.548;2023-03-30T01:14:38;6.97;;;2.00;;
29812;SDS011;16707;48.106;11.548;2023-03-30T01:17:17;4.78;;;2.05;;
29812;SDS011;16707;48.106;11.548;2023-03-30T01:20:05;5.10;;;2.20;;
29812;SDS011;16707;48.106;11.548;2023-03-30T01:23:27;5.22;;;1.40;;
29812;SDS011;16707;48.106;11.548;2023-03-30T01:26:17;3.78;;;1.70;;
29812;SDS011;16707;48.106;11.548;2023-03-30T01:28:57;2.77;;;1.20;;
29812;SDS011;16707;48.106;11.548;2023-03-30T01:31:39;4.28;;;1.80;;
29812;SDS011;16707;48.106;11.548;2023-03-30T01:34:38;5.43;;;1.77;;
29812;SDS011;16707;48.106;11.548;2023-03-30T01:40:38;4.30;;;1.42;;
29812;SDS011;16707;48.106;11.548;2023-03-30T01:43:12;6.38;;;1.50;;
29812;SDS011;16707;48.106;11.548;2023-03-30T01:45:43;3.92;;;1.60;;
29812;SDS011;16707;48.106;11.548;2023-03-30T01:48:17;5.80;;;1.60;;
29812;SDS011;16707;48.106;11.548;2023-03-30T01:51:03;4.38;;;1.90;;
29812;SDS011;16707;48.106;11.548;2023-03-30T01:56:12;3.92;;;1.45;;
29812;SDS011;16707;48.106;11.548;2023-03-30T02:01:53;4.90;;;1.67;;
29812;SDS011;16707;48.106;11.548;2023-03-30T02:04:26;5.13;;;1.50;;
29812;SDS011;16707;48.106;11.548;2023-03-30T02:07:01;3.67;;;1.42;;
29812;SDS011;16707;48.106;11.548;2023-03-30T02:09:33;5.93;;;2.00;;
29812;SDS011;16707;48.106;11.548;2023-03-30T02:12:09;4.53;;;2.05;;
29812;SDS011;16707;48.106;11.548;2023-03-30T02:14:37;4.10;;;1.80;;
29812;SDS011;16707;48.106;11.548;2023-03-30T02:17:11;5.47;;;1.52;;
29812;SDS011;16707;48.106;11.548;2023-03-30T02:19:58;4.95;;;1.42;;
29812;SDS011;16707;48.106;11.548;2023-03-30T02:22:38;6.43;;;1.50;;
29812;SDS011;16707;48.106;11.548;2023-03-30T02:25:32;5.55;;;1.60;;
29812;SDS011;16707;48.106;11.548;2023-03-30T02:28:09;5.13;;;2.25;;
29812;SDS011;16707;48.106;11.548;2023-03-30T02:30:42;3.28;;;1.40;;
29812;SDS011;16707;48.106;11.548;2023-03-30T02:33:18;4.28;;;1.80;;
29812;SDS011;16707;48.106;11.548;2023-03-30T02:36:06;3.97;;;1.88;;
29812;SDS011;16707;48.106;11.548;2023-03-30T02:39:08;6.95;;;1.95;;
29812;SDS011;16707;48.106;11.548;2023-03-30T02:42:03;5.45;;;1.77;;
29812;SDS011;16707;48.106;11.548;2023-03-30T02:45:05;6.10;;;1.67;;
29812;SDS011;16707;48.106;11.548;2023-03-30T02:47:45;6.43;;;1.92;;
29812;SDS011;16707;48.106;11.548;2023-03-30T02:50:32;4.90;;;2.00;;
29812;SDS011;16707;48.106;11.548;2023-03-30T02:53:19;8.18;;;1.98;;
29812;SDS011;16707;48.106;11.548;2023-03-30T02:55:55;7.53;;;1.85;;
29812;SDS011;16707;48.106;11.548;2023-03-30T02:58:29;7.60;;;2.35;;
29812;SDS011;16707;48.106;11.548;2023-03-30T03:01:03;6.60;;;2.13;;
29812;SDS011;16707;48.106;11.548;2023-03-30T03:03:42;4.35;;;1.83;;
29812;SDS011;16707;48.106;11.548;2023-03-30T03:06:19;8.30;;;2.35;;
29812;SDS011;16707;48.106;11.548;2023-03-30T03:09:05;6.32;;;2.25;;
29812;SDS011;16707;48.106;11.548;2023-03-30T03:11:44;5.22;;;2.20;;
29812;SDS011;16707;48.106;11.548;2023-03-30T03:14:17;5.90;;;2.72;;
29812;SDS011;16707;48.106;11.548;2023-03-30T03:16:52;10.77;;;2.50;;
29812;SDS011;16707;48.106;11.548;2023-03-30T03:19:25;8.70;;;2.47;;
29812;SDS011;16707;48.106;11.548;2023-03-30T03:21:54;8.48;;;2.10;;
29812;SDS011;16707;48.106;11.548;2023-03-30T03:24:28;6.90;;;2.30;;
29812;SDS011;16707;48.106;11.548;2023-03-30T03:27:03;5.88;;;2.40;;
29812;SDS011;16707;48.106;11.548;2023-03-30T03:29:42;10.63;;;2.45;;
29812;SDS011;16707;48.106;11.548;2023-03-30T03:32:18;8.02;;;1.95;;
29812;SDS011;16707;48.106;11.548;2023-03-30T03:34:45;6.43;;;2.25;;
29812;SDS011;16707;48.106;11.548;2023-03-30T03:37:16;9.75;;;2.42;;
29812;SDS011;16707;48.106;11.548;2023-03-30T03:39:45;7.90;;;2.47;;
29812;SDS011;16707;48.106;11.548;2023-03-30T03:42:22;14.68;;;3.45;;
29812;SDS011;16707;48.106;11.548;2023-03-30T03:44:49;6.18;;;2.35;;
29812;SDS011;16707;48.106;11.548;2023-03-30T03:47:23;7.80;;;2.28;;
29812;SDS011;16707;48.106;11.548;2023-03-30T03:52:30;6.47;;;3.10;;
29812;SDS011;16707;48.106;11.548;2023-03-30T03:55:25;8.80;;;2.47;;
29812;SDS011;16707;48.106;11.548;2023-03-30T03:57:54;8.75;;;2.28;;
29812;SDS011;16707;48.106;11.548;2023-03-30T04:00:30;6.78;;;2.25;;
29812;SDS011;16707;48.106;11.548;2023-03-30T04:03:00;8.57;;;2.53;;
29812;SDS011;16707;48.106;11.548;2023-03-30T04:05:37;10.02;;;2.97;;
29812;SDS011;16707;48.106;11.548;2023-03-30T04:08:10;9.38;;;3.08;;
29812;SDS011;16707;48.106;11.548;2023-03-30T04:10:40;9.27;;;2.58;;
29812;SDS011;16707;48.106;11.548;2023-03-30T04:13:11;9.75;;;2.88;;
29812;SDS011;16707;48.106;11.548;2023-03-30T04:15:38;8.85;;;3.13;;
29812;SDS011;16707;48.106;11.548;2023-03-30T04:18:17;9.35;;;3.22;;
29812;SDS011;16707;48.106;11.548;2023-03-30T04:20:45;9.35;;;2.70;;
29812;SDS011;16707;48.106;11.548;2023-03-30T04:23:13;8.25;;;2.42;;
29812;SDS011;16707;48.106;11.548;2023-03-30T04:25:46;15.65;;;3.90;;
29812;SDS011;16707;48.106;11.548;2023-03-30T04:28:15;11.55;;;3.80;;
29812;SDS011;16707;48.106;11.548;2023-03-30T04:30:48;7.93;;;3.28;;
29812;SDS011;16707;48.106;11.548;2023-03-30T04:33:37;11.77;;;3.92;;
29812;SDS011;16707;48.106;11.548;2023-03-30T04:36:14;10.70;;;3.40;;
29812;SDS011;16707;48.106;11.548;2023-03-30T04:38:43;7.80;;;3.00;;
29812;SDS011;16707;48.106;11.548;2023-03-30T04:41:26;8.18;;;3.35;;
29812;SDS011;16707;48.106;11.548;2023-03-30T04:44:06;9.18;;;3.75;;
29812;SDS011;16707;48.106;11.548;2023-03-30T04:46:42;11.55;;;3.45;;
29812;SDS011;16707;48.106;11.548;2023-03-30T04:49:14;12.00;;;3.60;;
29812;SDS011;16707;48.106;11.548;2023-03-30T04:51:51;6.53;;;3.00;;
29812;SDS011;16707;48.106;11.548;2023-03-30T04:54:28;8.32;;;3.30;;
29812;SDS011;16707;48.106;11.548;2023-03-30T04:56:59;10.18;;;3.25;;
29812;SDS011;16707;48.106;11.548;2023-03-30T04:59:26;9.52;;;3.00;;
29812;SDS011;16707;48.106;11.548;2023-03-30T05:01:57;13.10;;;3.10;;
29812;SDS011;16707;48.106;11.548;2023-03-30T05:04:26;9.52;;;3.38;;
29812;SDS011;16707;48.106;11.548;2023-03-30T05:06:54;8.32;;;2.55;;
29812;SDS011;16707;48.106;11.548;2023-03-30T05:09:23;8.38;;;3.30;;
29812;SDS011;16707;48.106;11.548;2023-03-30T05:12:00;9.98;;;3.35;;
29812;SDS011;16707;48.106;11.548;2023-03-30T05:14:28;9.48;;;2.70;;
29812;SDS011;16707;48.106;11.548;2023-03-30T05:16:59;15.35;;;3.90;;
29812;SDS011;16707;48.106;11.548;2023-03-30T05:19:27;9.68;;;3.30;;
29812;SDS011;16707;48.106;11.548;2023-03-30T05:21:55;7.15;;;2.72;;
29812;SDS011;16707;48.106;11.548;2023-03-30T05:24:25;9.02;;;3.20;;
29812;SDS011;16707;48.106;11.548;2023-03-30T05:27:05;13.85;;;3.85;;
29812;SDS011;16707;48.106;11.548;2023-03-30T05:29:36;10.02;;;3.40;;
29812;SDS011;16707;48.106;11.548;2023-03-30T05:32:03;5.88;;;3.08;;
29812;SDS011;16707;48.106;11.548;2023-03-30T05:34:31;7.03;;;3.08;;
29812;SDS011;16707;48.106;11.548;2023-03-30T05:37:01;8.50;;;3.25;;
29812;SDS011;16707;48.106;11.548;2023-03-30T05:39:28;8.95;;;3.10;;
29812;SDS011;16707;48.106;11.548;2023-03-30T05:41:56;7.55;;;2.58;;
29812;SDS011;16707;48.106;11.548;2023-03-30T05:44:23;8.70;;;3.33;;
29812;SDS011;16707;48.106;11.548;2023-03-30T05:46:50;11.13;;;2.88;;
29812;SDS011;16707;48.106;11.548;2023-03-30T05:49:17;7.10;;;3.30;;
29812;SDS011;16707;48.106;11.548;2023-03-30T05:51:48;8.95;;;3.22;;
29812;SDS011;16707;48.106;11.548;2023-03-30T05:54:20;13.95;;;3.78;;
29812;SDS011;16707;48.106;11.548;2023-03-30T05:56:47;8.95;;;3.08;;
29812;SDS011;16707;48.106;11.548;2023-03-30T05:59:14;6.82;;;2.85;;
29812;SDS011;16707;48.106;11.548;2023-03-30T06:01:41;8.93;;;2.83;;
29812;SDS011;16707;48.106;11.548;2023-03-30T06:04:19;6.50;;;2.72;;
29812;SDS011;16707;48.106;11.548;2023-03-30T06:06:48;7.78;;;3.17;;
29812;SDS011;16707;48.106;11.548;2023-03-30T06:09:15;8.65;;;2.88;;
29812;SDS011;16707;48.106;11.548;2023-03-30T06:11:48;6.75;;;2.40;;
29812;SDS011;16707;48.106;11.548;2023-03-30T06:14:15;8.68;;;3.08;;
29812;SDS011;16707;48.106;11.548;2023-03-30T06:16:42;8.82;;;2.72;;
29812;SDS011;16707;48.106;11.548;2023-03-30T06:19:09;7.90;;;2.30;;
29812;SDS011;16707;48.106;11.548;2023-03-30T06:21:38;8.18;;;3.17;;
29812;SDS011;16707;48.106;11.548;2023-03-30T06:24:07;6.15;;;2.58;;
29812;SDS011;16707;48.106;11.548;2023-03-30T06:26:39;8.23;;;2.90;;
29812;SDS011;16707;48.106;11.548;2023-03-30T06:29:06;8.27;;;2.70;;
29812;SDS011;16707;48.106;11.548;2023-03-30T06:31:39;7.70;;;2.20;;
29812;SDS011;16707;48.106;11.548;2023-03-30T06:34:06;6.45;;;2.20;;
29812;SDS011;16707;48.106;11.548;2023-03-30T06:36:36;8.45;;;2.40;;
29812;SDS011;16707;48.106;11.548;2023-03-30T06:39:04;6.47;;;2.38;;
29812;SDS011;16707;48.106;11.548;2023-03-30T06:41:48;6.20;;;2.65;;
29812;SDS011;16707;48.106;11.548;2023-03-30T06:44:14;6.00;;;2.63;;
29812;SDS011;16707;48.106;11.548;2023-03-30T06:46:41;6.57;;;2.90;;
29812;SDS011;16707;48.106;11.548;2023-03-30T06:49:10;7.80;;;2.55;;
29812;SDS011;16707;48.106;11.548;2023-03-30T06:51:39;5.20;;;2.20;;
29812;SDS011;16707;48.106;11.548;2023-03-30T06:54:07;6.50;;;2.75;;
29812;SDS011;16707;48.106;11.548;2023-03-30T06:56:34;12.13;;;3.08;;
29812;SDS011;16707;48.106;11.548;2023-03-30T06:59:04;10.02;;;2.65;;
29812;SDS011;16707;48.106;11.548;2023-03-30T07:01:31;8.02;;;2.90;;
29812;SDS011;16707;48.106;11.548;2023-03-30T07:04:01;6.95;;;2.83;;
29812;SDS011;16707;48.106;11.548;2023-03-30T07:06:28;4.03;;;2.20;;
29812;SDS011;16707;48.106;11.548;2023-03-30T07:08:55;6.63;;;2.30;;
29812;SDS011;16707;48.106;11.548;2023-03-30T07:11:29;5.82;;;2.20;;
29812;SDS011;16707;48.106;11.548;2023-03-30T07:13:56;5.78;;;2.20;;
29812;SDS011;16707;48.106;11.548;2023-03-30T07:16:25;8.52;;;2.22;;
29812;SDS011;16707;48.106;11.548;2023-03-30T07:18:52;5.53;;;2.33;;
29812;SDS011;16707;48.106;11.548;2023-03-30T07:21:19;5.60;;;2.50;;
29812;SDS011;16707;48.106;11.548;2023-03-30T07:23:46;7.47;;;2.75;;
29812;SDS011;16707;48.106;11.548;2023-03-30T07:26:14;6.85;;;2.13;;
29812;SDS011;16707;48.106;11.548;2023-03-30T07:28:43;7.13;;;2.10;;
29812;SDS011;16707;48.106;11.548;2023-03-30T07:31:17;6.45;;;2.53;;
29812;SDS011;16707;48.106;11.548;2023-03-30T07:33:45;7.13;;;2.60;;
29812;SDS011;16707;48.106;11.548;2023-03-30T07:36:13;8.77;;;2.70;;
29812;SDS011;16707;48.106;11.548;2023-03-30T07:38:40;5.80;;;2.20;;
29812;SDS011;16707;48.106;11.548;2023-03-30T07:41:08;9.80;;;2.53;;
29812;SDS011;16707;48.106;11.548;2023-03-30T07:43:38;8.43;;;3.40;;
29812;SDS011;16707;48.106;11.548;2023-03-30T07:46:07;9.13;;;3.00;;
29812;SDS011;16707;48.106;11.548;2023-03-30T07:48:36;9.13;;;3.08;;
29812;SDS011;16707;48.106;11.548;2023-03-30T07:51:07;7.25;;;2.55;;
29812;SDS011;16707;48.106;11.548;2023-03-30T07:53:36;6.18;;;2.35;;
29812;SDS011;16707;48.106;11.548;2023-03-30T07:56:06;8.27;;;2.40;;
29812;SDS011;16707;48.106;11.548;2023-03-30T07:58:33;8.50;;;2.90;;
29812;SDS011;16707;48.106;11.548;2023-03-30T08:01:01;5.50;;;2.53;;
29812;SDS011;16707;48.106;11.548;2023-03-30T08:03:30;7.03;;;2.45;;
29812;SDS011;16707;48.106;11.548;2023-03-30T08:05:59;6.97;;;2.92;;
29812;SDS011;16707;48.106;11.548;2023-03-30T08:08:32;6.32;;;1.90;;
29812;SDS011;16707;48.106;11.548;2023-03-30T08:11:03;7.93;;;2.70;;
29812;SDS011;16707;48.106;11.548;2023-03-30T08:13:30;5.38;;;2.47;;
29812;SDS011;16707;48.106;11.548;2023-03-30T08:15:57;6.38;;;2.08;;
29812;SDS011;16707;48.106;11.548;2023-03-30T08:18:25;5.88;;;2.60;;
29812;SDS011;16707;48.106;11.548;2023-03-30T08:20:57;6.80;;;2.55;;
29812;SDS011;16707;48.106;11.548;2023-03-30T08:23:24;3.97;;;1.83;;
29812;SDS011;16707;48.106;11.548;2023-03-30T08:25:55;9.75;;;2.70;;
29812;SDS011;16707;48.106;11.548;2023-03-30T08:28:22;6.63;;;2.47;;
29812;SDS011;16707;48.106;11.548;2023-03-30T08:30:49;8.38;;;3.05;;
29812;SDS011;16707;48.106;11.548;2023-03-30T08:33:18;6.15;;;2.40;;
29812;SDS011;16707;48.106;11.548;2023-03-30T08:35:48;6.57;;;2.20;;
29812;SDS011;16707;48.106;11.548;2023-03-30T08:38:18;8.27;;;2.45;;
29812;SDS011;16707;48.106;11.548;2023-03-30T08:40:46;8.80;;;2.50;;
29812;SDS011;16707;48.106;11.548;2023-03-30T08:43:18;7.45;;;2.55;;
29812;SDS011;16707;48.106;11.548;2023-03-30T08:45:57;8.65;;;2.80;;
29812;SDS011;16707;48.106;11.548;2023-03-30T08:48:26;4.93;;;2.38;;
29812;SDS011;16707;48.106;11.548;2023-03-30T08:51:07;11.05;;;2.63;;
29812;SDS011;16707;48.106;11.548;2023-03-30T08:53:44;6.72;;;2.20;;
29812;SDS011;16707;48.106;11.548;2023-03-30T08:56:14;7.28;;;2.13;;
29812;SDS011;16707;48.106;11.548;2023-03-30T08:58:50;7.78;;;2.53;;
29812;SDS011;16707;48.106;11.548;2023-03-30T09:01:25;8.57;;;2.58;;
29812;SDS011;16707;48.106;11.548;2023-03-30T09:04:06;6.55;;;2.50;;
29812;SDS011;16707;48.106;11.548;2023-03-30T09:06:49;9.27;;;2.42;;
29812;SDS011;16707;48.106;11.548;2023-03-30T09:09:18;7.22;;;2.47;;
29812;SDS011;16707;48.106;11.548;2023-03-30T09:11:48;7.13;;;2.13;;
29812;SDS011;16707;48.106;11.548;2023-03-30T09:14:25;6.30;;;2.43;;
29812;SDS011;16707;48.106;11.548;2023-03-30T09:17:02;5.63;;;2.45;;
29812;SDS011;16707;48.106;11.548;2023-03-30T09:19:40;5.22;;;1.90;;
29812;SDS011;16707;48.106;11.548;2023-03-30T09:22:14;7.05;;;2.60;;
29812;SDS011;16707;48.106;11.548;2023-03-30T09:24:47;6.47;;;1.85;;
29812;SDS011;16707;48.106;11.548;2023-03-30T09:27:18;6.45;;;1.92;;
29812;SDS011;16707;48.106;11.548;2023-03-30T09:30:06;6.95;;;2.58;;
29812;SDS011;16707;48.106;11.548;2023-03-30T09:32:45;3.60;;;1.80;;
29812;SDS011;16707;48.106;11.548;2023-03-30T09:35:24;5.85;;;2.15;;
29812;SDS011;16707;48.106;11.548;2023-03-30T09:38:02;7.72;;;2.15;;
29812;SDS011;16707;48.106;11.548;2023-03-30T09:40:37;4.45;;;1.88;;
29812;SDS011;16707;48.106;11.548;2023-03-30T09:43:23;6.07;;;1.92;;
29812;SDS011;16707;48.106;11.548;2023-03-30T09:45:59;6.53;;;2.05;;
29812;SDS011;16707;48.106;11.548;2023-03-30T09:48:36;6.65;;;2.30;;
29812;SDS011;16707;48.106;11.548;2023-03-30T09:51:12;8.32;;;2.10;;
29812;SDS011;16707;48.106;11.548;2023-03-30T09:53:44;6.15;;;2.47;;
29812;SDS011;16707;48.106;11.548;2023-03-30T09:56:25;6.35;;;1.92;;
29812;SDS011;16707;48.106;11.548;2023-03-30T09:58:55;6.15;;;2.00;;
29812;SDS011;16707;48.106;11.548;2023-03-30T10:01:22;6.22;;;1.88;;
29812;SDS011;16707;48.106;11.548;2023-03-30T10:04:04;5.50;;;2.00;;
29812;SDS011;16707;48.106;11.548;2023-03-30T10:06:36;7.68;;;2.20;;
29812;SDS011;16707;48.106;11.548;2023-03-30T10:09:12;8.75;;;2.80;;
29812;SDS011;16707;48.106;11.548;2023-03-30T10:11:43;8.55;;;3.03;;
29812;SDS011;16707;48.106;11.548;2023-03-30T10:14:20;4.93;;;1.88;;
29812;SDS011;16707;48.106;11.548;2023-03-30T10:16:55;6.85;;;2.65;;
29812;SDS011;16707;48.106;11.548;2023-03-30T10:19:23;7.32;;;2.58;;
29812;SDS011;16707;48.106;11.548;2023-03-30T10:21:52;6.68;;;2.22;;
29812;SDS011;16707;48.106;11.548;2023-03-30T10:24:23;8.88;;;2.50;;
29812;SDS011;16707;48.106;11.548;2023-03-30T10:26:56;6.10;;;2.50;;
29812;SDS011;16707;48.106;11.548;2023-03-30T10:29:32;7.20;;;2.20;;
29812;SDS011;16707;48.106;11.548;2023-03-30T10:32:00;10.60;;;2.33;;
29812;SDS011;16707;48.106;11.548;2023-03-30T10:34:35;8.70;;;2.30;;
29812;SDS011;16707;48.106;11.548;2023-03-30T10:37:08;9.88;;;2.85;;
29812;SDS011;16707;48.106;11.548;2023-03-30T10:39:39;10.20;;;2.72;;
29812;SDS011;16707;48.106;11.548;2023-03-30T10:42:10;10.50;;;2.35;;
29812;SDS011;16707;48.106;11.548;2023-03-30T10:44:43;7.03;;;2.67;;
29812;SDS011;16707;48.106;11.548;2023-03-30T10:47:23;11.73;;;3.95;;
29812;SDS011;16707;48.106;11.548;2023-03-30T10:50:23;11.00;;;2.42;;
29812;SDS011;16707;48.106;11.548;2023-03-30T10:53:02;7.45;;;2.97;;
29812;SDS011;16707;48.106;11.548;2023-03-30T10:55:54;7.63;;;3.08;;
29812;SDS011;16707;48.106;11.548;2023-03-30T10:58:31;7.68;;;2.75;;
29812;SDS011;16707;48.106;11.548;2023-03-30T11:01:14;11.13;;;3.10;;
29812;SDS011;16707;48.106;11.548;2023-03-30T11:03:46;8.15;;;2.30;;
29812;SDS011;16707;48.106;11.548;2023-03-30T11:06:23;8.27;;;2.50;;
29812;SDS011;16707;48.106;11.548;2023-03-30T11:08:53;8.02;;;2.90;;
29812;SDS011;16707;48.106;11.548;2023-03-30T11:11:28;7.20;;;2.40;;
29812;SDS011;16707;48.106;11.548;2023-03-30T11:14:02;7.90;;;2.30;;
29812;SDS011;16707;48.106;11.548;2023-03-30T11:16:35;7.70;;;2.30;;
29812;SDS011;16707;48.106;11.548;2023-03-30T11:19:12;9.45;;;2.78;;
29812;SDS011;16707;48.106;11.548;2023-03-30T11:24:21;7.85;;;2.13;;
29812;SDS011;16707;48.106;11.548;2023-03-30T11:26:54;9.30;;;2.53;;
29812;SDS011;16707;48.106;11.548;2023-03-30T11:29:33;8.20;;;2.97;;
29812;SDS011;16707;48.106;11.548;2023-03-30T11:32:13;7.82;;;2.30;;
29812;SDS011;16707;48.106;11.548;2023-03-30T11:34:58;5.55;;;2.42;;
29812;SDS011;16707;48.106;11.548;2023-03-30T11:37:40;4.47;;;2.38;;
29812;SDS011;16707;48.106;11.548;2023-03-30T11:42:43;5.80;;;2.25;;
29812;SDS011;16707;48.106;11.548;2023-03-30T11:45:16;6.82;;;2.20;;
29812;SDS011;16707;48.106;11.548;2023-03-30T11:48:01;5.05;;;2.38;;
29812;SDS011;16707;48.106;11.548;2023-03-30T11:50:43;4.93;;;2.50;;
29812;SDS011;16707;48.106;11.548;2023-03-30T11:53:22;4.63;;;2.55;;
29812;SDS011;16707;48.106;11.548;2023-03-30T11:56:04;6.82;;;2.55;;
29812;SDS011;16707;48.106;11.548;2023-03-30T11:58:57;5.07;;;2.78;;
29812;SDS011;16707;48.106;11.548;2023-03-30T12:01:42;7.22;;;2.15;;
29812;SDS011;16707;48.106;11.548;2023-03-30T12:04:23;6.22;;;2.33;;
29812;SDS011;16707;48.106;11.548;2023-03-30T12:06:56;3.78;;;1.83;;
29812;SDS011;16707;48.106;11.548;2023-03-30T12:09:24;6.07;;;2.60;;
29812;SDS011;16707;48.106;11.548;2023-03-30T12:11:55;4.82;;;3.05;;
29812;SDS011;16707;48.106;11.548;2023-03-30T12:14:46;4.47;;;2.47;;
29812;SDS011;16707;48.106;11.548;2023-03-30T12:17:33;6.60;;;2.97;;
29812;SDS011;16707;48.106;11.548;2023-03-30T12:20:19;6.07;;;3.00;;
29812;SDS011;16707;48.106;11.548;2023-03-30T12:22:55;7.13;;;3.10;;
29812;SDS011;16707;48.106;11.548;2023-03-30T12:25:27;4.53;;;2.83;;
29812;SDS011;16707;48.106;11.548;2023-03-30T12:28:03;6.03;;;2.55;;
29812;SDS011;16707;48.106;11.548;2023-03-30T12:30:42;4.15;;;2.40;;
29812;SDS011;16707;48.106;11.548;2023-03-30T12:33:16;5.40;;;2.70;;
29812;SDS011;16707;48.106;11.548;2023-03-30T12:35:54;6.68;;;2.90;;
29812;SDS011;16707;48.106;11.548;2023-03-30T12:38:24;4.55;;;2.70;;
29812;SDS011;16707;48.106;11.548;2023-03-30T12:40:55;4.65;;;2.70;;
29812;SDS011;16707;48.106;11.548;2023-03-30T12:43:32;3.65;;;2.40;;
29812;SDS011;16707;48.106;11.548;2023-03-30T12:46:09;3.88;;;2.70;;
29812;SDS011;16707;48.106;11.548;2023-03-30T12:48:49;4.82;;;2.80;;
29812;SDS011;16707;48.106;11.548;2023-03-30T12:51:32;7.53;;;2.25;;
29812;SDS011;16707;48.106;11.548;2023-03-30T12:54:15;7.20;;;2.47;;
29812;SDS011;16707;48.106;11.548;2023-03-30T12:57:06;5.00;;;2.78;;
29812;SDS011;16707;48.106;11.548;2023-03-30T12:59:57;5.03;;;2.63;;
29812;SDS011;16707;48.106;11.548;2023-03-30T13:02:47;5.53;;;2.10;;
29812;SDS011;16707;48.106;11.548;2023-03-30T13:05:27;6.10;;;2.17;;
29812;SDS011;16707;48.106;11.548;2023-03-30T13:08:01;3.13;;;2.33;;
29812;SDS011;16707;48.106;11.548;2023-03-30T13:10:32;4.53;;;2.38;;
29812;SDS011;16707;48.106;11.548;2023-03-30T13:13:14;3.85;;;2.30;;
29812;SDS011;16707;48.106;11.548;2023-03-30T13:15:46;3.38;;;1.90;;
29812;SDS011;16707;48.106;11.548;2023-03-30T13:18:33;2.67;;;2.30;;
29812;SDS011;16707;48.106;11.548;2023-03-30T13:21:18;4.72;;;1.92;;
29812;SDS011;16707;48.106;11.548;2023-03-30T13:24:00;3.55;;;1.83;;
29812;SDS011;16707;48.106;11.548;2023-03-30T13:26:38;3.65;;;1.30;;
29812;SDS011;16707;48.106;11.548;2023-03-30T13:29:09;2.88;;;1.65;;
29812;SDS011;16707;48.106;11.548;2023-03-30T13:31:47;2.00;;;1.27;;
29812;SDS011;16707;48.106;11.548;2023-03-30T13:35:00;1.25;;;1.10;;
29812;SDS011;16707;48.106;11.548;2023-03-30T13:37:41;2.03;;;1.65;;
29812;SDS011;16707;48.106;11.548;2023-03-30T13:40:26;1.80;;;1.67;;
29812;SDS011;16707;48.106;11.548;2023-03-30T13:42:58;2.10;;;1.45;;
29812;SDS011;16707;48.106;11.548;2023-03-30T13:45:34;3.17;;;1.52;;
29812;SDS011;16707;48.106;11.548;2023-03-30T13:48:14;3.50;;;1.60;;
29812;SDS011;16707;48.106;11.548;2023-03-30T13:50:54;3.55;;;1.55;;
29812;SDS011;16707;48.106;11.548;2023-03-30T13:53:25;3.40;;;1.70;;
29812;SDS011;16707;48.106;11.548;2023-03-30T13:55:56;3.80;;;2.25;;
29812;SDS011;16707;48.106;11.548;2023-03-30T13:58:24;3.20;;;1.60;;
29812;SDS011;16707;48.106;11.548;2023-03-30T14:00:55;4.13;;;1.60;;
29812;SDS011;16707;48.106;11.548;2023-03-30T14:03:33;6.15;;;1.60;;
29812;SDS011;16707;48.106;11.548;2023-03-30T14:06:05;5.90;;;1.98;;
29812;SDS011;16707;48.106;11.548;2023-03-30T14:08:34;3.72;;;1.70;;
29812;SDS011;16707;48.106;11.548;2023-03-30T14:11:03;2.63;;;1.70;;
29812;SDS011;16707;48.106;11.548;2023-03-30T14:13:36;2.63;;;1.55;;
29812;SDS011;16707;48.106;11.548;2023-03-30T14:16:03;3.58;;;1.70;;
29812;SDS011;16707;48.106;11.548;2023-03-30T14:18:31;4.72;;;1.70;;
29812;SDS011;16707;48.106;11.548;2023-03-30T14:21:01;3.88;;;1.60;;
29812;SDS011;16707;48.106;11.548;2023-03-30T14:23:36;2.67;;;1.48;;
29812;SDS011;16707;48.106;11.548;2023-03-30T14:26:10;2.97;;;1.50;;
29812;SDS011;16707;48.106;11.548;2023-03-30T14:28:38;4.07;;;1.80;;
29812;SDS011;16707;48.106;11.548;2023-03-30T14:31:10;4.53;;;2.45;;
29812;SDS011;16707;48.106;11.548;2023-03-30T14:33:41;5.55;;;2.00;;
29812;SDS011;16707;48.106;11.548;2023-03-30T14:36:10;3.08;;;1.92;;
29812;SDS011;16707;48.106;11.548;2023-03-30T14:38:41;4.40;;;2.17;;
29812;SDS011;16707;48.106;11.548;2023-03-30T14:41:13;4.60;;;1.90;;
29812;SDS011;16707;48.106;11.548;2023-03-30T14:43:49;5.25;;;2.08;;
29812;SDS011;16707;48.106;11.548;2023-03-30T14:46:18;5.80;;;2.20;;
29812;SDS011;16707;48.106;11.548;2023-03-30T14:48:48;5.22;;;2.17;;
29812;SDS011;16707;48.106;11.548;2023-03-30T14:51:25;4.67;;;2.53;;
29812;SDS011;16707;48.106;11.548;2023-03-30T14:54:04;5.35;;;1.83;;
29812;SDS011;16707;48.106;11.548;2023-03-30T14:56:34;3.90;;;2.40;;
29812;SDS011;16707;48.106;11.548;2023-03-30T14:59:06;4.47;;;2.22;;
29812;SDS011;16707;48.106;11.548;2023-03-30T15:01:37;4.85;;;2.22;;
29812;SDS011;16707;48.106;11.548;2023-03-30T15:04:06;3.45;;;2.13;;
29812;SDS011;16707;48.106;11.548;2023-03-30T15:06:44;4.72;;;2.50;;
29812;SDS011;16707;48.106;11.548;2023-03-30T15:09:13;4.93;;;3.10;;
29812;SDS011;16707;48.106;11.548;2023-03-30T15:11:43;5.30;;;3.08;;
29812;SDS011;16707;48.106;11.548;2023-03-30T15:14:12;5.57;;;3.20;;
29812;SDS011;16707;48.106;11.548;2023-03-30T15:16:45;5.40;;;3.05;;
29812;SDS011;16707;48.106;11.548;2023-03-30T15:19:20;5.60;;;3.08;;
29812;SDS011;16707;48.106;11.548;2023-03-30T15:22:01;3.85;;;2.60;;
29812;SDS011;16707;48.106;11.548;2023-03-30T15:24:30;4.63;;;2.90;;
29812;SDS011;16707;48.106;11.548;2023-03-30T15:27:01;4.43;;;3.30;;
29812;SDS011;16707;48.106;11.548;2023-03-30T15:29:31;6.20;;;3.25;;
29812;SDS011;16707;48.106;11.548;2023-03-30T15:32:07;4.45;;;3.33;;
29812;SDS011;16707;48.106;11.548;2023-03-30T15:35:00;5.63;;;3.08;;